sensor_id;sensor_type;location;lat;lon;timestamp;temperature;humidity
58582;DHT22;44361;51.476;5.700;2022-12-07T00:01:08;4.50;99.90
58582;DHT22;44361;51.476;5.700;2022-12-07T00:03:34;4.50;99.90
58582;DHT22;44361;51.476;5.700;2022-12-07T00:06:02;4.50;99.90
58582;DHT22;44361;51.476;5.700;2022-12-07T00:08:28;4.50;99.90
58582;DHT22;44361;51.476;5.700;2022-12-07T00:10:54;4.50;99.90
58582;DHT22;44361;51.476;5.700;2022-12-07T00:13:20;4.50;99.90
58582;DHT22;44361;51.476;5.700;2022-12-07T00:15:45;4.40;99.90
58582;DHT22;44361;51.476;5.700;2022-12-07T00:18:17;4.30;99.90
58582;DHT22;44361;51.476;5.700;2022-12-07T00:20:43;4.20;99.90
58582;DHT22;44361;51.476;5.700;2022-12-07T00:23:11;4.20;99.90
58582;DHT22;44361;51.476;5.700;2022-12-07T00:25:38;4.10;99.90
58582;DHT22;44361;51.476;5.700;2022-12-07T00:28:04;4.10;99.90
58582;DHT22;44361;51.476;5.700;2022-12-07T00:30:35;4.10;99.90
58582;DHT22;44361;51.476;5.700;2022-12-07T00:33:01;4.10;99.90
58582;DHT22;44361;51.476;5.700;2022-12-07T00:35:26;4.00;99.90
58582;DHT22;44361;51.476;5.700;2022-12-07T00:37:52;3.90;99.90
58582;DHT22;44361;51.476;5.700;2022-12-07T00:40:22;4.00;99.90
58582;DHT22;44361;51.476;5.700;2022-12-07T00:42:48;4.00;99.90
58582;DHT22;44361;51.476;5.700;2022-12-07T00:45:13;3.80;99.90
58582;DHT22;44361;51.476;5.700;2022-12-07T00:47:39;3.70;99.90
58582;DHT22;44361;51.476;5.700;2022-12-07T00:50:06;3.60;99.90
58582;DHT22;44361;51.476;5.700;2022-12-07T00:52:33;3.50;99.90
58582;DHT22;44361;51.476;5.700;2022-12-07T00:54:59;3.40;99.90
58582;DHT22;44361;51.476;5.700;2022-12-07T00:57:28;3.30;99.90
58582;DHT22;44361;51.476;5.700;2022-12-07T00:59:59;3.20;99.90
58582;DHT22;44361;51.476;5.700;2022-12-07T01:02:25;3.10;99.90
58582;DHT22;44361;51.476;5.700;2022-12-07T01:04:51;3.10;99.90
58582;DHT22;44361;51.476;5.700;2022-12-07T01:07:16;3.20;99.90
58582;DHT22;44361;51.476;5.700;2022-12-07T01:09:42;3.20;99.90
58582;DHT22;44361;51.476;5.700;2022-12-07T01:12:08;3.30;99.90
58582;DHT22;44361;51.476;5.700;2022-12-07T01:14:33;3.30;99.90
58582;DHT22;44361;51.476;5.700;2022-12-07T01:16:59;3.50;99.90
58582;DHT22;44361;51.476;5.700;2022-12-07T01:19:24;3.60;99.90
58582;DHT22;44361;51.476;5.700;2022-12-07T01:21:50;3.70;99.90
58582;DHT22;44361;51.476;5.700;2022-12-07T01:24:16;3.80;99.90
58582;DHT22;44361;51.476;5.700;2022-12-07T01:26:41;3.90;99.90
58582;DHT22;44361;51.476;5.700;2022-12-07T01:29:07;3.90;99.90
58582;DHT22;44361;51.476;5.700;2022-12-07T01:31:33;4.00;99.90
58582;DHT22;44361;51.476;5.700;2022-12-07T01:33:59;4.00;99.90
58582;DHT22;44361;51.476;5.700;2022-12-07T01:36:34;4.00;99.90
58582;DHT22;44361;51.476;5.700;2022-12-07T01:39:05;4.00;99.90
58582;DHT22;44361;51.476;5.700;2022-12-07T01:41:50;4.00;99.90
58582;DHT22;44361;51.476;5.700;2022-12-07T01:44:20;4.10;99.90
58582;DHT22;44361;51.476;5.700;2022-12-07T01:46:56;4.10;99.90
58582;DHT22;44361;51.476;5.700;2022-12-07T01:49:42;4.10;99.90
58582;DHT22;44361;51.476;5.700;2022-12-07T01:52:27;4.10;99.90
58582;DHT22;44361;51.476;5.700;2022-12-07T01:55:00;4.00;99.90
58582;DHT22;44361;51.476;5.700;2022-12-07T01:57:28;3.90;99.90
58582;DHT22;44361;51.476;5.700;2022-12-07T01:59:58;3.80;99.90
58582;DHT22;44361;51.476;5.700;2022-12-07T02:02:29;3.70;99.90
58582;DHT22;44361;51.476;5.700;2022-12-07T02:04:59;3.70;99.90
58582;DHT22;44361;51.476;5.700;2022-12-07T02:07:26;3.50;99.90
58582;DHT22;44361;51.476;5.700;2022-12-07T02:09:53;3.60;99.90
58582;DHT22;44361;51.476;5.700;2022-12-07T02:12:22;3.50;99.90
58582;DHT22;44361;51.476;5.700;2022-12-07T02:14:49;3.60;99.90
58582;DHT22;44361;51.476;5.700;2022-12-07T02:17:21;3.70;99.90
58582;DHT22;44361;51.476;5.700;2022-12-07T02:23:21;3.80;99.90
58582;DHT22;44361;51.476;5.700;2022-12-07T02:29:13;4.00;99.90
58582;DHT22;44361;51.476;5.700;2022-12-07T02:32:19;4.00;99.90
58582;DHT22;44361;51.476;5.700;2022-12-07T02:35:09;4.00;99.90
58582;DHT22;44361;51.476;5.700;2022-12-07T02:40:23;3.90;99.90
58582;DHT22;44361;51.476;5.700;2022-12-07T02:42:56;3.90;99.90
58582;DHT22;44361;51.476;5.700;2022-12-07T02:45:35;3.90;99.90
58582;DHT22;44361;51.476;5.700;2022-12-07T02:48:03;3.70;99.90
58582;DHT22;44361;51.476;5.700;2022-12-07T02:50:31;3.60;99.90
58582;DHT22;44361;51.476;5.700;2022-12-07T02:52:57;3.50;99.90
58582;DHT22;44361;51.476;5.700;2022-12-07T02:55:31;3.50;99.90
58582;DHT22;44361;51.476;5.700;2022-12-07T02:58:05;3.50;99.90
58582;DHT22;44361;51.476;5.700;2022-12-07T03:01:01;3.40;99.90
58582;DHT22;44361;51.476;5.700;2022-12-07T03:03:33;3.40;99.90
58582;DHT22;44361;51.476;5.700;2022-12-07T03:06:13;3.40;99.90
58582;DHT22;44361;51.476;5.700;2022-12-07T03:08:58;3.40;99.90
58582;DHT22;44361;51.476;5.700;2022-12-07T03:11:49;3.40;99.90
58582;DHT22;44361;51.476;5.700;2022-12-07T03:14:23;3.30;99.90
58582;DHT22;44361;51.476;5.700;2022-12-07T03:16:52;3.30;99.90
58582;DHT22;44361;51.476;5.700;2022-12-07T03:19:21;3.10;99.90
58582;DHT22;44361;51.476;5.700;2022-12-07T03:21:55;3.10;99.90
58582;DHT22;44361;51.476;5.700;2022-12-07T03:24:28;2.90;99.90
58582;DHT22;44361;51.476;5.700;2022-12-07T03:27:07;3.10;99.90
58582;DHT22;44361;51.476;5.700;2022-12-07T03:29:44;3.10;99.90
58582;DHT22;44361;51.476;5.700;2022-12-07T03:32:17;3.30;99.90
58582;DHT22;44361;51.476;5.700;2022-12-07T03:35:12;3.50;99.90
58582;DHT22;44361;51.476;5.700;2022-12-07T03:37:38;3.50;99.90
58582;DHT22;44361;51.476;5.700;2022-12-07T03:40:14;3.70;99.90
58582;DHT22;44361;51.476;5.700;2022-12-07T03:42:42;3.70;99.90
58582;DHT22;44361;51.476;5.700;2022-12-07T03:45:08;3.80;99.90
58582;DHT22;44361;51.476;5.700;2022-12-07T03:47:55;3.80;99.90
58582;DHT22;44361;51.476;5.700;2022-12-07T03:50:32;3.80;99.90
58582;DHT22;44361;51.476;5.700;2022-12-07T03:53:13;3.80;99.90
58582;DHT22;44361;51.476;5.700;2022-12-07T03:55:43;3.80;99.90
58582;DHT22;44361;51.476;5.700;2022-12-07T03:58:14;3.70;99.90
58582;DHT22;44361;51.476;5.700;2022-12-07T04:00:42;3.80;99.90
58582;DHT22;44361;51.476;5.700;2022-12-07T04:03:12;3.80;99.90
58582;DHT22;44361;51.476;5.700;2022-12-07T04:05:40;3.90;99.90
58582;DHT22;44361;51.476;5.700;2022-12-07T04:08:08;3.90;99.90
58582;DHT22;44361;51.476;5.700;2022-12-07T04:10:35;3.90;99.90
58582;DHT22;44361;51.476;5.700;2022-12-07T04:13:04;4.00;99.90
58582;DHT22;44361;51.476;5.700;2022-12-07T04:15:32;4.00;99.90
58582;DHT22;44361;51.476;5.700;2022-12-07T04:17:58;4.00;99.90
58582;DHT22;44361;51.476;5.700;2022-12-07T04:20:24;4.10;99.90
58582;DHT22;44361;51.476;5.700;2022-12-07T04:22:49;4.00;99.90
58582;DHT22;44361;51.476;5.700;2022-12-07T04:25:18;4.10;99.90
58582;DHT22;44361;51.476;5.700;2022-12-07T04:27:43;4.10;99.90
58582;DHT22;44361;51.476;5.700;2022-12-07T04:30:09;4.10;99.90
58582;DHT22;44361;51.476;5.700;2022-12-07T04:32:36;4.10;99.90
58582;DHT22;44361;51.476;5.700;2022-12-07T04:35:03;4.20;99.90
58582;DHT22;44361;51.476;5.700;2022-12-07T04:37:30;4.10;99.90
58582;DHT22;44361;51.476;5.700;2022-12-07T04:39:55;4.10;99.90
58582;DHT22;44361;51.476;5.700;2022-12-07T04:42:22;4.10;99.90
58582;DHT22;44361;51.476;5.700;2022-12-07T04:44:49;4.00;99.90
58582;DHT22;44361;51.476;5.700;2022-12-07T04:47:15;4.10;99.90
58582;DHT22;44361;51.476;5.700;2022-12-07T04:49:43;4.00;99.90
58582;DHT22;44361;51.476;5.700;2022-12-07T04:52:09;3.90;99.90
58582;DHT22;44361;51.476;5.700;2022-12-07T04:54:34;3.90;99.90
58582;DHT22;44361;51.476;5.700;2022-12-07T04:57:00;3.90;99.90
58582;DHT22;44361;51.476;5.700;2022-12-07T04:59:26;4.00;99.90
58582;DHT22;44361;51.476;5.700;2022-12-07T05:01:53;4.00;99.90
58582;DHT22;44361;51.476;5.700;2022-12-07T05:04:19;4.10;99.90
58582;DHT22;44361;51.476;5.700;2022-12-07T05:06:44;4.10;99.90
58582;DHT22;44361;51.476;5.700;2022-12-07T05:09:11;4.10;99.90
58582;DHT22;44361;51.476;5.700;2022-12-07T05:11:37;4.00;99.90
58582;DHT22;44361;51.476;5.700;2022-12-07T05:16:40;3.90;99.90
58582;DHT22;44361;51.476;5.700;2022-12-07T05:19:07;3.90;99.90
58582;DHT22;44361;51.476;5.700;2022-12-07T05:21:35;3.90;99.90
58582;DHT22;44361;51.476;5.700;2022-12-07T05:24:01;3.80;99.90
58582;DHT22;44361;51.476;5.700;2022-12-07T05:26:29;3.80;99.90
58582;DHT22;44361;51.476;5.700;2022-12-07T05:28:56;3.70;99.90
58582;DHT22;44361;51.476;5.700;2022-12-07T05:31:23;3.70;99.90
58582;DHT22;44361;51.476;5.700;2022-12-07T05:33:50;3.70;99.90
58582;DHT22;44361;51.476;5.700;2022-12-07T05:36:16;3.60;99.90
58582;DHT22;44361;51.476;5.700;2022-12-07T05:38:45;3.40;99.90
58582;DHT22;44361;51.476;5.700;2022-12-07T05:41:15;3.30;99.90
58582;DHT22;44361;51.476;5.700;2022-12-07T05:44:00;3.20;99.90
58582;DHT22;44361;51.476;5.700;2022-12-07T05:46:26;3.20;99.90
58582;DHT22;44361;51.476;5.700;2022-12-07T05:48:52;3.10;99.90
58582;DHT22;44361;51.476;5.700;2022-12-07T05:51:17;2.90;99.90
58582;DHT22;44361;51.476;5.700;2022-12-07T05:53:44;2.80;99.90
58582;DHT22;44361;51.476;5.700;2022-12-07T05:56:11;2.90;99.90
58582;DHT22;44361;51.476;5.700;2022-12-07T05:58:36;2.80;99.90
58582;DHT22;44361;51.476;5.700;2022-12-07T06:01:20;2.80;99.90
58582;DHT22;44361;51.476;5.700;2022-12-07T06:03:46;2.70;99.90
58582;DHT22;44361;51.476;5.700;2022-12-07T06:06:11;2.70;99.90
58582;DHT22;44361;51.476;5.700;2022-12-07T06:08:37;2.60;99.90
58582;DHT22;44361;51.476;5.700;2022-12-07T06:11:05;2.80;99.90
58582;DHT22;44361;51.476;5.700;2022-12-07T06:13:55;2.80;99.90
58582;DHT22;44361;51.476;5.700;2022-12-07T06:16:21;2.80;99.90
58582;DHT22;44361;51.476;5.700;2022-12-07T06:18:46;2.70;99.90
58582;DHT22;44361;51.476;5.700;2022-12-07T06:21:12;2.60;99.90
58582;DHT22;44361;51.476;5.700;2022-12-07T06:23:38;2.50;99.90
58582;DHT22;44361;51.476;5.700;2022-12-07T06:26:04;2.50;99.90
58582;DHT22;44361;51.476;5.700;2022-12-07T06:28:29;2.40;99.90
58582;DHT22;44361;51.476;5.700;2022-12-07T06:31:00;2.40;99.90
58582;DHT22;44361;51.476;5.700;2022-12-07T06:33:27;2.30;99.90
58582;DHT22;44361;51.476;5.700;2022-12-07T06:35:53;2.40;99.90
58582;DHT22;44361;51.476;5.700;2022-12-07T06:38:22;2.50;99.90
58582;DHT22;44361;51.476;5.700;2022-12-07T06:40:49;2.50;99.90
58582;DHT22;44361;51.476;5.700;2022-12-07T06:43:14;2.40;99.90
58582;DHT22;44361;51.476;5.700;2022-12-07T06:45:41;2.40;99.90
58582;DHT22;44361;51.476;5.700;2022-12-07T06:48:08;2.30;99.90
58582;DHT22;44361;51.476;5.700;2022-12-07T06:50:33;2.30;99.90
58582;DHT22;44361;51.476;5.700;2022-12-07T06:53:00;2.40;99.90
58582;DHT22;44361;51.476;5.700;2022-12-07T06:55:26;2.40;99.90
58582;DHT22;44361;51.476;5.700;2022-12-07T06:57:59;2.40;99.90
58582;DHT22;44361;51.476;5.700;2022-12-07T07:00:24;2.60;99.90
58582;DHT22;44361;51.476;5.700;2022-12-07T07:02:52;2.60;99.90
58582;DHT22;44361;51.476;5.700;2022-12-07T07:05:22;2.60;99.90
58582;DHT22;44361;51.476;5.700;2022-12-07T07:07:50;2.60;99.90
58582;DHT22;44361;51.476;5.700;2022-12-07T07:10:17;2.60;99.90
58582;DHT22;44361;51.476;5.700;2022-12-07T07:12:42;2.50;99.90
58582;DHT22;44361;51.476;5.700;2022-12-07T07:15:11;2.50;99.90
58582;DHT22;44361;51.476;5.700;2022-12-07T07:17:37;2.50;99.90
58582;DHT22;44361;51.476;5.700;2022-12-07T07:20:06;2.60;99.90
58582;DHT22;44361;51.476;5.700;2022-12-07T07:22:35;2.60;99.90
58582;DHT22;44361;51.476;5.700;2022-12-07T07:25:00;2.70;99.90
58582;DHT22;44361;51.476;5.700;2022-12-07T07:27:26;2.70;99.90
58582;DHT22;44361;51.476;5.700;2022-12-07T07:29:51;2.70;99.90
58582;DHT22;44361;51.476;5.700;2022-12-07T07:32:19;2.70;99.90
58582;DHT22;44361;51.476;5.700;2022-12-07T07:34:46;2.80;99.90
58582;DHT22;44361;51.476;5.700;2022-12-07T07:37:12;2.70;99.90
58582;DHT22;44361;51.476;5.700;2022-12-07T07:39:38;2.70;99.90
58582;DHT22;44361;51.476;5.700;2022-12-07T07:42:04;2.70;99.90
58582;DHT22;44361;51.476;5.700;2022-12-07T07:44:30;2.70;99.90
58582;DHT22;44361;51.476;5.700;2022-12-07T07:46:55;2.70;99.90
58582;DHT22;44361;51.476;5.700;2022-12-07T07:49:21;2.80;99.90
58582;DHT22;44361;51.476;5.700;2022-12-07T07:51:46;2.80;99.90
58582;DHT22;44361;51.476;5.700;2022-12-07T07:54:12;2.90;99.90
58582;DHT22;44361;51.476;5.700;2022-12-07T07:56:41;3.00;99.90
58582;DHT22;44361;51.476;5.700;2022-12-07T07:59:17;3.00;99.90
58582;DHT22;44361;51.476;5.700;2022-12-07T08:01:45;3.00;99.90
58582;DHT22;44361;51.476;5.700;2022-12-07T08:04:11;3.10;99.90
58582;DHT22;44361;51.476;5.700;2022-12-07T08:06:38;3.10;99.90
58582;DHT22;44361;51.476;5.700;2022-12-07T08:09:04;3.20;99.90
58582;DHT22;44361;51.476;5.700;2022-12-07T08:11:31;3.20;99.90
58582;DHT22;44361;51.476;5.700;2022-12-07T08:13:56;3.20;99.90
58582;DHT22;44361;51.476;5.700;2022-12-07T08:16:24;3.10;99.90
58582;DHT22;44361;51.476;5.700;2022-12-07T08:18:50;3.00;99.90
58582;DHT22;44361;51.476;5.700;2022-12-07T08:21:18;3.00;99.90
58582;DHT22;44361;51.476;5.700;2022-12-07T08:23:44;3.10;99.90
58582;DHT22;44361;51.476;5.700;2022-12-07T08:26:13;3.10;99.90
58582;DHT22;44361;51.476;5.700;2022-12-07T08:28:39;3.20;99.90
58582;DHT22;44361;51.476;5.700;2022-12-07T08:31:12;3.30;99.90
58582;DHT22;44361;51.476;5.700;2022-12-07T08:33:38;3.30;99.90
58582;DHT22;44361;51.476;5.700;2022-12-07T08:36:27;3.30;99.90
58582;DHT22;44361;51.476;5.700;2022-12-07T08:38:53;3.40;99.90
58582;DHT22;44361;51.476;5.700;2022-12-07T08:41:19;3.50;99.90
58582;DHT22;44361;51.476;5.700;2022-12-07T08:43:47;3.60;99.90
58582;DHT22;44361;51.476;5.700;2022-12-07T08:46:53;3.70;99.90
58582;DHT22;44361;51.476;5.700;2022-12-07T08:49:27;3.80;99.90
58582;DHT22;44361;51.476;5.700;2022-12-07T08:52:01;3.80;99.90
58582;DHT22;44361;51.476;5.700;2022-12-07T08:54:30;3.80;99.90
58582;DHT22;44361;51.476;5.700;2022-12-07T08:56:59;3.80;99.90
58582;DHT22;44361;51.476;5.700;2022-12-07T08:59:25;3.90;99.90
58582;DHT22;44361;51.476;5.700;2022-12-07T09:01:54;3.90;99.90
58582;DHT22;44361;51.476;5.700;2022-12-07T09:04:20;4.00;99.90
58582;DHT22;44361;51.476;5.700;2022-12-07T09:06:47;4.00;99.90
58582;DHT22;44361;51.476;5.700;2022-12-07T09:09:17;4.00;99.90
58582;DHT22;44361;51.476;5.700;2022-12-07T09:11:43;4.10;99.90
58582;DHT22;44361;51.476;5.700;2022-12-07T09:14:11;4.20;99.90
58582;DHT22;44361;51.476;5.700;2022-12-07T09:16:38;4.20;99.90
58582;DHT22;44361;51.476;5.700;2022-12-07T09:19:05;4.40;99.90
58582;DHT22;44361;51.476;5.700;2022-12-07T09:21:31;4.50;99.90
58582;DHT22;44361;51.476;5.700;2022-12-07T09:23:57;4.40;99.90
58582;DHT22;44361;51.476;5.700;2022-12-07T09:26:22;4.50;99.90
58582;DHT22;44361;51.476;5.700;2022-12-07T09:28:48;4.50;99.90
58582;DHT22;44361;51.476;5.700;2022-12-07T09:31:14;4.60;99.90
58582;DHT22;44361;51.476;5.700;2022-12-07T09:33:39;4.60;99.90
58582;DHT22;44361;51.476;5.700;2022-12-07T09:36:07;4.70;99.90
58582;DHT22;44361;51.476;5.700;2022-12-07T09:38:33;4.80;99.90
58582;DHT22;44361;51.476;5.700;2022-12-07T09:41:04;4.80;99.90
58582;DHT22;44361;51.476;5.700;2022-12-07T09:43:30;4.80;99.90
58582;DHT22;44361;51.476;5.700;2022-12-07T09:45:56;4.80;99.90
58582;DHT22;44361;51.476;5.700;2022-12-07T09:48:36;4.90;99.90
58582;DHT22;44361;51.476;5.700;2022-12-07T09:51:14;4.90;99.90
58582;DHT22;44361;51.476;5.700;2022-12-07T09:53:41;4.90;99.90
58582;DHT22;44361;51.476;5.700;2022-12-07T09:56:14;4.90;99.90
58582;DHT22;44361;51.476;5.700;2022-12-07T09:58:41;4.90;99.90
58582;DHT22;44361;51.476;5.700;2022-12-07T10:01:13;5.00;99.90
58582;DHT22;44361;51.476;5.700;2022-12-07T10:04:27;5.00;99.90
58582;DHT22;44361;51.476;5.700;2022-12-07T10:06:29;5.00;99.90
58582;DHT22;44361;51.476;5.700;2022-12-07T10:08:55;5.10;99.90
58582;DHT22;44361;51.476;5.700;2022-12-07T10:11:21;5.20;99.90
58582;DHT22;44361;51.476;5.700;2022-12-07T10:13:48;5.20;99.90
58582;DHT22;44361;51.476;5.700;2022-12-07T10:18:54;4.90;99.90
58582;DHT22;44361;51.476;5.700;2022-12-07T10:21:24;4.90;99.90
58582;DHT22;44361;51.476;5.700;2022-12-07T10:24:14;4.80;99.90
58582;DHT22;44361;51.476;5.700;2022-12-07T10:29:21;5.10;99.90
58582;DHT22;44361;51.476;5.700;2022-12-07T10:32:03;5.10;99.90
58582;DHT22;44361;51.476;5.700;2022-12-07T10:34:43;5.20;99.90
58582;DHT22;44361;51.476;5.700;2022-12-07T10:39:56;5.40;99.90
58582;DHT22;44361;51.476;5.700;2022-12-07T10:42:32;5.70;99.90
58582;DHT22;44361;51.476;5.700;2022-12-07T10:45:17;5.90;99.90
58582;DHT22;44361;51.476;5.700;2022-12-07T10:48:15;6.10;99.90
58582;DHT22;44361;51.476;5.700;2022-12-07T11:05:11;6.60;99.90
58582;DHT22;44361;51.476;5.700;2022-12-07T11:08:15;6.60;99.90
58582;DHT22;44361;51.476;5.700;2022-12-07T11:11:40;6.90;99.90
58582;DHT22;44361;51.476;5.700;2022-12-07T11:14:23;7.20;99.90
58582;DHT22;44361;51.476;5.700;2022-12-07T11:19:47;7.70;99.90
58582;DHT22;44361;51.476;5.700;2022-12-07T11:27:48;8.10;99.90
58582;DHT22;44361;51.476;5.700;2022-12-07T11:30:23;8.30;99.90
58582;DHT22;44361;51.476;5.700;2022-12-07T11:32:57;8.30;99.90
58582;DHT22;44361;51.476;5.700;2022-12-07T11:36:04;8.30;99.90
58582;DHT22;44361;51.476;5.700;2022-12-07T11:38:43;8.00;99.90
58582;DHT22;44361;51.476;5.700;2022-12-07T11:41:10;7.80;99.90
58582;DHT22;44361;51.476;5.700;2022-12-07T11:43:50;7.80;99.90
58582;DHT22;44361;51.476;5.700;2022-12-07T11:46:17;7.70;99.90
58582;DHT22;44361;51.476;5.700;2022-12-07T11:49:03;7.70;99.90
58582;DHT22;44361;51.476;5.700;2022-12-07T11:51:36;7.50;99.90
58582;DHT22;44361;51.476;5.700;2022-12-07T11:54:16;7.40;99.90
58582;DHT22;44361;51.476;5.700;2022-12-07T11:56:43;7.40;99.90
58582;DHT22;44361;51.476;5.700;2022-12-07T11:59:12;7.40;99.90
58582;DHT22;44361;51.476;5.700;2022-12-07T12:02:07;7.50;99.90
58582;DHT22;44361;51.476;5.700;2022-12-07T12:05:05;7.60;99.90
58582;DHT22;44361;51.476;5.700;2022-12-07T12:07:38;7.50;99.90
58582;DHT22;44361;51.476;5.700;2022-12-07T12:10:13;7.50;99.90
58582;DHT22;44361;51.476;5.700;2022-12-07T12:15:52;7.30;99.90
58582;DHT22;44361;51.476;5.700;2022-12-07T12:21:28;7.40;99.90
58582;DHT22;44361;51.476;5.700;2022-12-07T12:24:02;7.40;99.90
58582;DHT22;44361;51.476;5.700;2022-12-07T12:26:32;7.40;99.90
58582;DHT22;44361;51.476;5.700;2022-12-07T12:29:06;7.40;99.90
58582;DHT22;44361;51.476;5.700;2022-12-07T12:31:43;7.50;99.90
58582;DHT22;44361;51.476;5.700;2022-12-07T12:42:51;7.50;99.90
58582;DHT22;44361;51.476;5.700;2022-12-07T12:48:29;7.50;99.90
58582;DHT22;44361;51.476;5.700;2022-12-07T12:54:12;7.30;99.90
58582;DHT22;44361;51.476;5.700;2022-12-07T12:57:04;7.20;99.90
58582;DHT22;44361;51.476;5.700;2022-12-07T13:02:28;7.00;99.90
58582;DHT22;44361;51.476;5.700;2022-12-07T13:15:53;7.00;99.90
58582;DHT22;44361;51.476;5.700;2022-12-07T13:29:16;7.30;99.90
58582;DHT22;44361;51.476;5.700;2022-12-07T13:31:42;7.30;99.90
58582;DHT22;44361;51.476;5.700;2022-12-07T13:34:40;7.30;99.90
58582;DHT22;44361;51.476;5.700;2022-12-07T13:37:24;7.30;99.90
58582;DHT22;44361;51.476;5.700;2022-12-07T13:40:01;7.20;99.90
58582;DHT22;44361;51.476;5.700;2022-12-07T13:42:38;7.10;99.90
58582;DHT22;44361;51.476;5.700;2022-12-07T13:45:32;7.10;99.90
58582;DHT22;44361;51.476;5.700;2022-12-07T13:48:31;7.00;99.90
58582;DHT22;44361;51.476;5.700;2022-12-07T13:51:02;6.80;99.90
58582;DHT22;44361;51.476;5.700;2022-12-07T13:53:32;6.70;99.90
58582;DHT22;44361;51.476;5.700;2022-12-07T13:56:01;6.70;99.90
58582;DHT22;44361;51.476;5.700;2022-12-07T13:58:37;6.70;99.90
58582;DHT22;44361;51.476;5.700;2022-12-07T14:01:05;6.70;99.90
58582;DHT22;44361;51.476;5.700;2022-12-07T14:03:34;6.70;99.90
58582;DHT22;44361;51.476;5.700;2022-12-07T14:06:15;6.70;99.90
58582;DHT22;44361;51.476;5.700;2022-12-07T14:08:44;6.70;99.90
58582;DHT22;44361;51.476;5.700;2022-12-07T14:11:19;6.80;99.90
58582;DHT22;44361;51.476;5.700;2022-12-07T14:14:06;6.80;99.90
58582;DHT22;44361;51.476;5.700;2022-12-07T14:16:38;6.70;99.90
58582;DHT22;44361;51.476;5.700;2022-12-07T14:19:39;6.60;99.90
58582;DHT22;44361;51.476;5.700;2022-12-07T14:22:17;6.60;99.90
58582;DHT22;44361;51.476;5.700;2022-12-07T14:25:32;6.60;99.90
58582;DHT22;44361;51.476;5.700;2022-12-07T14:30:28;6.60;99.90
58582;DHT22;44361;51.476;5.700;2022-12-07T14:32:59;6.60;99.90
58582;DHT22;44361;51.476;5.700;2022-12-07T14:35:29;6.60;99.90
58582;DHT22;44361;51.476;5.700;2022-12-07T14:37:56;6.60;99.90
58582;DHT22;44361;51.476;5.700;2022-12-07T14:40:25;6.70;99.90
58582;DHT22;44361;51.476;5.700;2022-12-07T14:43:00;6.70;99.90
58582;DHT22;44361;51.476;5.700;2022-12-07T14:45:27;6.70;99.90
58582;DHT22;44361;51.476;5.700;2022-12-07T14:47:53;6.70;99.90
58582;DHT22;44361;51.476;5.700;2022-12-07T14:50:20;6.70;99.90
58582;DHT22;44361;51.476;5.700;2022-12-07T14:52:49;6.70;99.90
58582;DHT22;44361;51.476;5.700;2022-12-07T14:55:35;6.60;99.90
58582;DHT22;44361;51.476;5.700;2022-12-07T14:58:01;6.60;99.90
58582;DHT22;44361;51.476;5.700;2022-12-07T15:00:28;6.60;99.90
58582;DHT22;44361;51.476;5.700;2022-12-07T15:02:54;6.50;99.90
58582;DHT22;44361;51.476;5.700;2022-12-07T15:05:22;6.30;99.90
58582;DHT22;44361;51.476;5.700;2022-12-07T15:07:50;6.20;99.90
58582;DHT22;44361;51.476;5.700;2022-12-07T15:10:22;6.10;99.90
58582;DHT22;44361;51.476;5.700;2022-12-07T15:12:48;6.00;99.90
58582;DHT22;44361;51.476;5.700;2022-12-07T15:15:14;6.00;99.90
58582;DHT22;44361;51.476;5.700;2022-12-07T15:17:41;5.90;99.90
58582;DHT22;44361;51.476;5.700;2022-12-07T15:20:15;5.90;99.90
58582;DHT22;44361;51.476;5.700;2022-12-07T15:22:42;5.80;99.90
58582;DHT22;44361;51.476;5.700;2022-12-07T15:25:14;5.80;99.90
58582;DHT22;44361;51.476;5.700;2022-12-07T15:27:40;5.80;99.90
58582;DHT22;44361;51.476;5.700;2022-12-07T15:30:10;5.80;99.90
58582;DHT22;44361;51.476;5.700;2022-12-07T15:32:36;5.70;99.90
58582;DHT22;44361;51.476;5.700;2022-12-07T15:35:07;5.70;99.90
58582;DHT22;44361;51.476;5.700;2022-12-07T15:37:35;5.60;99.90
58582;DHT22;44361;51.476;5.700;2022-12-07T15:40:01;5.60;99.90
58582;DHT22;44361;51.476;5.700;2022-12-07T15:42:28;5.50;99.90
58582;DHT22;44361;51.476;5.700;2022-12-07T15:44:53;5.50;99.90
58582;DHT22;44361;51.476;5.700;2022-12-07T15:47:36;5.40;99.90
58582;DHT22;44361;51.476;5.700;2022-12-07T15:50:04;5.40;99.90
58582;DHT22;44361;51.476;5.700;2022-12-07T15:52:37;5.40;99.90
58582;DHT22;44361;51.476;5.700;2022-12-07T15:55:10;5.30;99.90
58582;DHT22;44361;51.476;5.700;2022-12-07T15:57:49;5.30;99.90
58582;DHT22;44361;51.476;5.700;2022-12-07T16:00:20;5.30;99.90
58582;DHT22;44361;51.476;5.700;2022-12-07T16:02:47;5.20;99.90
58582;DHT22;44361;51.476;5.700;2022-12-07T16:05:13;5.20;99.90
58582;DHT22;44361;51.476;5.700;2022-12-07T16:07:42;5.30;99.90
58582;DHT22;44361;51.476;5.700;2022-12-07T16:10:08;5.30;99.90
58582;DHT22;44361;51.476;5.700;2022-12-07T16:12:33;5.40;99.90
58582;DHT22;44361;51.476;5.700;2022-12-07T16:14:59;5.40;99.90
58582;DHT22;44361;51.476;5.700;2022-12-07T16:17:26;5.40;99.90
58582;DHT22;44361;51.476;5.700;2022-12-07T16:19:52;5.40;99.90
58582;DHT22;44361;51.476;5.700;2022-12-07T16:22:21;5.40;99.90
58582;DHT22;44361;51.476;5.700;2022-12-07T16:24:46;5.40;99.90
58582;DHT22;44361;51.476;5.700;2022-12-07T16:27:12;5.40;99.90
58582;DHT22;44361;51.476;5.700;2022-12-07T16:29:41;5.40;99.90
58582;DHT22;44361;51.476;5.700;2022-12-07T16:32:07;5.40;99.90
58582;DHT22;44361;51.476;5.700;2022-12-07T16:34:33;5.40;99.90
58582;DHT22;44361;51.476;5.700;2022-12-07T16:36:59;5.40;99.90
58582;DHT22;44361;51.476;5.700;2022-12-07T16:39:26;5.40;99.90
58582;DHT22;44361;51.476;5.700;2022-12-07T16:41:59;5.40;99.90
58582;DHT22;44361;51.476;5.700;2022-12-07T16:44:25;5.40;99.90
58582;DHT22;44361;51.476;5.700;2022-12-07T16:46:51;5.30;99.90
58582;DHT22;44361;51.476;5.700;2022-12-07T16:49:22;5.40;99.90
58582;DHT22;44361;51.476;5.700;2022-12-07T16:51:50;5.30;99.90
58582;DHT22;44361;51.476;5.700;2022-12-07T16:54:17;5.30;99.90
58582;DHT22;44361;51.476;5.700;2022-12-07T16:56:42;5.30;99.90
58582;DHT22;44361;51.476;5.700;2022-12-07T16:59:11;5.20;99.90
58582;DHT22;44361;51.476;5.700;2022-12-07T17:01:37;5.20;99.90
58582;DHT22;44361;51.476;5.700;2022-12-07T17:04:03;5.20;99.90
58582;DHT22;44361;51.476;5.700;2022-12-07T17:06:29;5.20;99.90
58582;DHT22;44361;51.476;5.700;2022-12-07T17:08:57;5.20;99.90
58582;DHT22;44361;51.476;5.700;2022-12-07T17:11:28;5.30;99.90
58582;DHT22;44361;51.476;5.700;2022-12-07T17:13:55;5.30;99.90
58582;DHT22;44361;51.476;5.700;2022-12-07T17:16:40;5.20;99.90
58582;DHT22;44361;51.476;5.700;2022-12-07T17:19:08;5.20;99.90
58582;DHT22;44361;51.476;5.700;2022-12-07T17:21:34;5.10;99.90
58582;DHT22;44361;51.476;5.700;2022-12-07T17:24:02;5.10;99.90
58582;DHT22;44361;51.476;5.700;2022-12-07T17:26:28;5.10;99.90
58582;DHT22;44361;51.476;5.700;2022-12-07T17:28:54;5.10;99.90
58582;DHT22;44361;51.476;5.700;2022-12-07T17:31:22;5.10;99.90
58582;DHT22;44361;51.476;5.700;2022-12-07T17:33:48;5.10;99.90
58582;DHT22;44361;51.476;5.700;2022-12-07T17:36:23;5.10;99.90
58582;DHT22;44361;51.476;5.700;2022-12-07T17:38:51;5.00;99.90